Time;durP1;ratioP1;P1;durP2;ratioP2;P2;SDS_P1;SDS_P2;PMS_P1;PMS_P2;Temp;Humidity;BMP_temperature;BMP_pressure;BME280_temperature;BME280_humidity;BME280_pressure;Samples;Min_cycle;Max_cycle;Signal;HPM_P1;HPM_P2
2021/11/07 00:00:52;;;;;;;4.75;3.47;;;10.60;99.90;;;;;;5032383;28;20187;-76
2021/11/07 00:03:26;;;;;;;5.65;3.50;;;10.60;99.90;;;;;;5031916;28;20171;-77
2021/11/07 00:11:01;;;;;;;8.68;3.72;;;10.70;99.90;;;;;;5032396;28;20219;-77
2021/11/07 00:13:28;;;;;;;6.82;3.47;;;10.70;99.90;;;;;;5031989;28;20199;-77
2021/11/07 00:15:57;;;;;;;4.75;4.03;;;10.60;99.90;;;;;;5031889;28;20164;-77
2021/11/07 00:18:29;;;;;;;5.53;4.35;;;10.50;99.90;;;;;;5032492;28;20539;-77
2021/11/07 00:21:01;;;;;;;8.95;4.78;;;10.60;99.90;;;;;;5031655;28;20659;-77
2021/11/07 00:28:41;;;;;;;8.35;4.68;;;10.60;99.90;;;;;;5032087;28;20178;-77
2021/11/07 00:36:53;;;;;;;10.18;4.43;;;10.60;99.90;;;;;;5031940;28;20241;-77
2021/11/07 00:42:35;;;;;;;7.30;4.53;;;10.50;99.90;;;;;;5032093;28;20683;-77
2021/11/07 00:44:43;;;;;;;4.70;4.35;;;10.50;99.90;;;;;;5026456;28;20571;-77
2021/11/07 00:47:23;;;;;;;6.55;4.93;;;10.40;99.90;;;;;;5031918;28;20698;-77
2021/11/07 00:49:53;;;;;;;5.07;4.68;;;10.50;99.90;;;;;;5031840;28;20549;-77
2021/11/07 00:52:26;;;;;;;11.55;5.32;;;10.40;99.90;;;;;;5031425;28;20621;-77
2021/11/07 00:55:07;;;;;;;5.75;5.15;;;10.40;99.90;;;;;;5031652;28;20210;-77
2021/11/07 00:57:52;;;;;;;8.60;5.15;;;10.50;99.90;;;;;;5031947;28;20984;-77
2021/11/07 01:03:03;;;;;;;13.10;6.13;;;10.40;99.90;;;;;;5032332;28;20652;-77
2021/11/07 01:05:32;;;;;;;10.65;5.50;;;10.40;99.90;;;;;;5035400;28;20168;-78
2021/11/07 01:07:59;;;;;;;6.15;5.65;;;10.50;99.90;;;;;;5035669;28;20190;-77
2021/11/07 01:10:26;;;;;;;8.60;5.47;;;10.40;99.90;;;;;;5035295;28;20237;-76
2021/11/07 01:12:52;;;;;;;9.70;6.70;;;10.50;99.90;;;;;;5035435;28;20204;-77
2021/11/07 01:15:18;;;;;;;8.40;6.25;;;10.30;99.90;;;;;;5035296;28;20175;-77
2021/11/07 01:17:44;;;;;;;9.35;6.22;;;10.40;99.90;;;;;;5035386;28;20168;-77
2021/11/07 01:20:12;;;;;;;7.35;6.13;;;10.50;99.90;;;;;;5035376;28;20191;-77
2021/11/07 01:22:57;;;;;;;8.50;6.43;;;10.50;99.90;;;;;;5035599;28;20217;-77
2021/11/07 01:25:25;;;;;;;7.93;6.25;;;10.40;99.90;;;;;;5035381;28;20249;-77
2021/11/07 01:27:52;;;;;;;12.60;7.20;;;10.40;99.90;;;;;;5035567;28;20160;-77
2021/11/07 01:30:22;;;;;;;7.78;6.30;;;10.50;99.90;;;;;;5035544;28;20183;-77
2021/11/07 01:32:55;;;;;;;7.32;6.72;;;10.60;99.90;;;;;;5035080;28;20207;-77
2021/11/07 01:35:25;;;;;;;7.07;6.47;;;10.60;99.90;;;;;;5033914;28;20160;-77
2021/11/07 01:40:26;;;;;;;11.25;6.95;;;10.60;99.90;;;;;;5034946;28;20279;-77
2021/11/07 01:43:01;;;;;;;6.75;6.15;;;10.60;99.90;;;;;;5035055;28;20527;-77
2021/11/07 01:45:39;;;;;;;7.00;6.40;;;10.60;99.90;;;;;;5035097;28;20160;-77
2021/11/07 01:48:18;;;;;;;10.77;6.68;;;10.60;99.90;;;;;;5034782;28;20176;-77
2021/11/07 01:50:52;;;;;;;7.30;6.57;;;10.60;99.90;;;;;;5035148;28;20211;-76
2021/11/07 01:53:30;;;;;;;7.60;6.60;;;10.60;99.90;;;;;;5035307;28;20226;-77
2021/11/07 01:55:59;;;;;;;7.53;5.97;;;10.60;99.90;;;;;;5034972;28;20553;-77
2021/11/07 01:58:27;;;;;;;9.57;7.03;;;10.60;99.90;;;;;;5034957;28;20172;-77
2021/11/07 02:00:54;;;;;;;10.07;6.65;;;10.50;99.90;;;;;;5034797;28;20194;-77
2021/11/07 02:03:20;;;;;;;7.22;6.53;;;10.60;99.90;;;;;;5035063;28;20211;-77
2021/11/07 02:05:46;;;;;;;7.60;6.53;;;10.60;99.90;;;;;;5034451;28;20167;-77
2021/11/07 02:08:12;;;;;;;6.55;5.95;;;10.70;99.90;;;;;;5034914;28;20164;-77
2021/11/07 02:10:39;;;;;;;7.72;6.57;;;10.70;99.90;;;;;;5034380;28;20196;-77
2021/11/07 02:13:07;;;;;;;7.30;6.57;;;10.70;99.90;;;;;;5034707;28;20203;-77
2021/11/07 02:15:33;;;;;;;7.20;6.50;;;10.80;99.90;;;;;;5033615;28;20178;-77
2021/11/07 02:17:59;;;;;;;8.02;7.22;;;10.60;99.90;;;;;;5034654;28;20168;-77
2021/11/07 02:20:31;;;;;;;15.40;7.70;;;10.70;99.90;;;;;;5034401;28;20664;-77
2021/11/07 02:22:58;;;;;;;10.95;7.13;;;10.70;99.90;;;;;;5034745;28;20194;-77
2021/11/07 02:25:25;;;;;;;7.35;6.65;;;10.70;99.90;;;;;;5034590;28;20552;-77
2021/11/07 02:27:51;;;;;;;8.45;7.63;;;10.70;99.90;;;;;;5034287;28;20180;-77
2021/11/07 02:30:17;;;;;;;17.75;7.30;;;10.70;99.90;;;;;;5034122;28;20198;-77
2021/11/07 02:32:45;;;;;;;7.85;7.15;;;10.80;99.90;;;;;;5033744;28;20203;-77
2021/11/07 02:35:11;;;;;;;8.07;7.38;;;10.70;99.90;;;;;;5034017;28;20164;-76
2021/11/07 02:37:37;;;;;;;7.28;6.65;;;10.70;99.90;;;;;;5033907;28;20180;-76
2021/11/07 02:40:06;;;;;;;17.50;7.53;;;10.60;99.90;;;;;;5034065;28;20203;-77
2021/11/07 02:42:32;;;;;;;10.82;7.05;;;10.60;99.90;;;;;;5033930;28;20176;-78
2021/11/07 02:44:58;;;;;;;10.23;6.72;;;10.80;99.90;;;;;;5034200;28;20191;-77
2021/11/07 02:47:24;;;;;;;7.43;6.63;;;10.90;99.90;;;;;;5033949;28;20214;-77
2021/11/07 02:49:49;;;;;;;9.40;7.13;;;10.80;99.90;;;;;;5034010;28;20191;-77
2021/11/07 02:52:16;;;;;;;6.53;5.88;;;10.80;99.90;;;;;;5033923;28;20227;-77
2021/11/07 02:54:42;;;;;;;7.70;6.40;;;10.80;99.90;;;;;;5033532;28;20188;-77
2021/11/07 02:57:12;;;;;;;7.10;5.93;;;10.80;99.90;;;;;;5033496;28;20168;-77
2021/11/07 02:59:40;;;;;;;10.07;5.97;;;10.70;99.90;;;;;;5033348;28;20184;-77
2021/11/07 03:02:08;;;;;;;7.32;6.70;;;10.70;99.90;;;;;;5033893;28;20164;-76
2021/11/07 03:04:34;;;;;;;7.13;6.18;;;10.60;99.90;;;;;;5033285;28;20179;-77
2021/11/07 03:07:00;;;;;;;8.93;6.05;;;10.70;99.90;;;;;;5033593;28;20179;-77
2021/11/07 03:09:32;;;;;;;7.57;6.95;;;10.70;99.90;;;;;;5033399;28;20184;-76
2021/11/07 03:11:59;;;;;;;7.55;6.65;;;10.60;99.90;;;;;;5033363;28;20199;-77
2021/11/07 03:14:28;;;;;;;9.02;6.72;;;10.60;99.90;;;;;;5033399;28;20168;-76
2021/11/07 03:16:55;;;;;;;7.72;7.00;;;10.70;99.90;;;;;;5033240;28;20196;-77
2021/11/07 03:19:23;;;;;;;9.85;7.03;;;10.70;99.90;;;;;;5033000;28;20183;-78
2021/11/07 03:21:51;;;;;;;9.15;7.45;;;10.70;99.90;;;;;;5033307;28;20529;-77
2021/11/07 03:24:18;;;;;;;8.88;7.53;;;10.70;99.90;;;;;;5033112;28;20270;-77
2021/11/07 03:26:44;;;;;;;8.30;7.55;;;10.80;99.90;;;;;;5033058;28;20179;-77
2021/11/07 03:29:11;;;;;;;7.63;6.80;;;10.80;99.90;;;;;;5033147;28;20171;-77
2021/11/07 03:31:56;;;;;;;6.40;5.90;;;10.80;99.90;;;;;;5032965;28;20179;-77
2021/11/07 03:36:54;;;;;;;9.18;8.27;;;10.70;99.90;;;;;;5032915;28;20168;-77
2021/11/07 03:39:23;;;;;;;10.45;6.90;;;10.70;99.90;;;;;;5033092;28;20196;-77
2021/11/07 03:41:49;;;;;;;12.52;7.50;;;10.70;99.90;;;;;;5032908;28;20171;-76
2021/11/07 03:44:17;;;;;;;7.00;6.40;;;10.80;99.90;;;;;;5032988;28;20170;-76
2021/11/07 03:46:45;;;;;;;6.97;6.30;;;10.80;99.90;;;;;;5032866;28;20211;-76
2021/11/07 03:49:11;;;;;;;7.47;6.78;;;10.80;99.90;;;;;;5032659;28;20171;-77
2021/11/07 03:51:37;;;;;;;7.22;6.63;;;11.00;99.90;;;;;;5032445;28;20263;-77
2021/11/07 03:54:05;;;;;;;7.28;6.68;;;11.00;99.90;;;;;;5032140;28;20303;-77
2021/11/07 03:56:31;;;;;;;7.05;6.45;;;11.00;99.90;;;;;;5032484;28;20255;-77
2021/11/07 03:58:57;;;;;;;6.85;6.35;;;10.90;99.90;;;;;;5032279;28;20259;-77
2021/11/07 04:01:23;;;;;;;8.43;7.20;;;10.90;99.90;;;;;;5032498;28;20188;-77
2021/11/07 04:03:48;;;;;;;6.68;6.07;;;10.90;99.90;;;;;;5032098;28;20174;-77
2021/11/07 04:06:15;;;;;;;6.50;6.00;;;10.90;99.90;;;;;;5032295;28;20682;-77
2021/11/07 04:08:41;;;;;;;6.57;6.07;;;10.90;99.90;;;;;;5032618;28;20183;-77
2021/11/07 04:11:07;;;;;;;7.07;6.38;;;10.90;99.90;;;;;;5032557;28;20215;-77
2021/11/07 04:13:37;;;;;;;7.53;6.85;;;11.00;99.90;;;;;;5032581;28;20234;-77
2021/11/07 04:16:03;;;;;;;6.95;6.35;;;11.10;99.90;;;;;;5032076;28;20196;-77
2021/11/07 04:18:29;;;;;;;6.35;5.95;;;11.00;99.90;;;;;;5032507;28;20167;-76
2021/11/07 04:20:55;;;;;;;5.75;5.35;;;11.10;99.90;;;;;;5032063;28;20188;-77
2021/11/07 04:23:21;;;;;;;7.10;6.50;;;11.10;99.90;;;;;;5032469;28;20198;-80
2021/11/07 04:25:46;;;;;;;6.32;5.80;;;11.10;99.90;;;;;;5032012;28;20168;-77
2021/11/07 04:28:12;;;;;;;6.10;5.60;;;11.10;99.90;;;;;;5032174;28;20168;-77
2021/11/07 04:30:37;;;;;;;6.28;5.88;;;11.00;99.90;;;;;;5031587;28;20657;-79
2021/11/07 04:33:03;;;;;;;7.60;6.90;;;11.00;99.90;;;;;;5031905;28;20222;-78
2021/11/07 04:35:29;;;;;;;7.38;6.68;;;11.10;99.90;;;;;;5032251;28;20556;-77
2021/11/07 04:37:55;;;;;;;6.40;5.90;;;11.10;99.90;;;;;;5033471;28;20174;-77
2021/11/07 04:40:23;;;;;;;8.30;6.32;;;11.30;99.90;;;;;;5038792;28;20571;-76
2021/11/07 04:42:49;;;;;;;7.15;6.55;;;11.30;99.90;;;;;;5038634;28;20623;-77
2021/11/07 04:45:15;;;;;;;7.05;6.40;;;11.30;99.90;;;;;;5038334;28;20198;-77
2021/11/07 04:47:41;;;;;;;8.70;6.28;;;11.30;99.90;;;;;;5038667;28;20650;-77
2021/11/07 04:50:08;;;;;;;8.27;5.93;;;11.20;99.90;;;;;;5037954;28;20236;-77
2021/11/07 04:52:34;;;;;;;7.13;6.05;;;11.20;99.90;;;;;;5038744;28;20289;-78
2021/11/07 04:55:00;;;;;;;6.95;6.35;;;11.20;99.90;;;;;;5038284;28;20187;-76
2021/11/07 04:57:26;;;;;;;7.75;6.35;;;11.20;99.90;;;;;;5038278;28;20624;-77
2021/11/07 04:59:51;;;;;;;12.23;5.95;;;11.20;99.90;;;;;;5037888;28;20184;-77
2021/11/07 05:02:17;;;;;;;7.20;6.07;;;11.30;99.90;;;;;;5037973;28;20661;-77
2021/11/07 05:04:43;;;;;;;9.43;6.63;;;11.30;99.90;;;;;;5038053;28;20541;-77
2021/11/07 05:07:09;;;;;;;10.00;6.90;;;11.30;99.90;;;;;;5038367;28;21194;-77
2021/11/07 05:09:35;;;;;;;6.95;6.35;;;11.30;99.90;;;;;;5038214;28;20194;-77
2021/11/07 05:12:01;;;;;;;8.73;7.55;;;11.30;99.90;;;;;;5038627;28;20668;-77
2021/11/07 05:14:27;;;;;;;10.88;6.85;;;11.30;99.90;;;;;;5038198;28;20179;-77
2021/11/07 05:16:53;;;;;;;7.78;7.07;;;11.40;99.90;;;;;;5037895;28;20209;-77
2021/11/07 05:19:18;;;;;;;8.40;6.07;;;11.40;99.90;;;;;;5036806;28;20203;-77
2021/11/07 05:21:44;;;;;;;8.57;6.85;;;11.30;99.90;;;;;;5036760;28;20203;-77
2021/11/07 05:24:10;;;;;;;9.27;7.68;;;11.30;99.90;;;;;;5038966;28;20164;-77
2021/11/07 05:26:35;;;;;;;9.38;7.53;;;11.30;99.90;;;;;;5038485;28;20199;-77
2021/11/07 05:29:02;;;;;;;7.57;6.97;;;11.40;99.90;;;;;;5038380;28;20199;-77
2021/11/07 05:31:29;;;;;;;7.45;6.63;;;11.50;99.90;;;;;;5038735;28;20172;-77
2021/11/07 05:33:55;;;;;;;11.25;6.78;;;11.60;99.90;;;;;;5037177;28;20183;-78
2021/11/07 05:36:21;;;;;;;9.25;7.60;;;11.60;99.90;;;;;;5036982;28;20573;-77
2021/11/07 05:38:47;;;;;;;11.13;7.55;;;11.60;99.90;;;;;;5038566;28;20176;-77
2021/11/07 05:41:13;;;;;;;10.35;7.78;;;11.60;99.90;;;;;;5038212;28;20183;-77
2021/11/07 05:43:40;;;;;;;7.53;6.90;;;11.50;99.90;;;;;;5038232;28;20160;-79
2021/11/07 05:46:05;;;;;;;9.95;7.85;;;11.50;99.90;;;;;;5038364;28;20167;-77
2021/11/07 05:48:31;;;;;;;7.60;6.93;;;11.60;99.90;;;;;;5037907;28;20180;-78
2021/11/07 05:50:57;;;;;;;20.90;9.40;;;11.60;99.90;;;;;;5034231;28;20188;-77
2021/11/07 05:53:24;;;;;;;11.55;7.90;;;11.70;99.90;;;;;;5034918;28;20291;-77
2021/11/07 05:55:50;;;;;;;7.85;7.05;;;11.80;99.90;;;;;;5035374;28;20551;-77
2021/11/07 05:58:16;;;;;;;16.55;9.00;;;11.70;99.90;;;;;;5035062;28;20502;-77
2021/11/07 06:00:42;;;;;;;9.32;8.38;;;11.80;99.90;;;;;;5033774;28;20238;-77
2021/11/07 06:03:08;;;;;;;14.88;8.95;;;11.90;99.90;;;;;;5034444;28;20498;-77
2021/11/07 06:05:37;;;;;;;9.27;7.47;;;11.80;99.90;;;;;;5034573;28;20182;-77
2021/11/07 06:08:04;;;;;;;11.32;9.02;;;11.70;99.90;;;;;;5035021;28;20168;-77
2021/11/07 06:10:30;;;;;;;10.40;8.52;;;11.80;99.90;;;;;;5034704;28;20181;-77
2021/11/07 06:12:55;;;;;;;13.18;8.90;;;11.80;99.90;;;;;;5033587;28;20294;-77
2021/11/07 06:15:21;;;;;;;13.35;9.02;;;11.60;99.90;;;;;;5034644;28;20520;-77
2021/11/07 06:17:47;;;;;;;10.10;8.18;;;11.60;99.90;;;;;;5034021;28;20168;-77
2021/11/07 06:20:12;;;;;;;10.23;9.23;;;11.50;99.90;;;;;;5034472;28;20180;-77
2021/11/07 06:22:38;;;;;;;14.57;9.40;;;11.60;99.90;;;;;;5034613;28;20197;-77
2021/11/07 06:25:05;;;;;;;10.75;9.43;;;11.60;99.90;;;;;;5034387;28;20251;-77
2021/11/07 06:27:32;;;;;;;10.07;9.15;;;11.60;99.90;;;;;;5032939;28;20172;-77
2021/11/07 06:29:59;;;;;;;10.75;9.80;;;11.50;99.90;;;;;;5034286;28;20192;-77
2021/11/07 06:32:25;;;;;;;11.02;9.57;;;11.60;99.90;;;;;;5034281;28;20208;-77
2021/11/07 06:34:50;;;;;;;12.25;9.38;;;11.70;99.90;;;;;;5034153;28;20213;-77
2021/11/07 06:37:16;;;;;;;9.10;8.25;;;11.80;99.90;;;;;;5034071;28;20679;-77
2021/11/07 06:39:42;;;;;;;11.55;9.13;;;11.80;99.90;;;;;;5032635;28;20259;-77
2021/11/07 06:42:09;;;;;;;11.85;8.77;;;11.90;99.90;;;;;;5033760;28;20640;-77
2021/11/07 06:44:35;;;;;;;10.65;8.52;;;11.80;99.90;;;;;;5033384;28;20631;-77
2021/11/07 06:47:02;;;;;;;9.93;8.85;;;11.90;99.90;;;;;;5033888;28;20163;-77
2021/11/07 06:49:28;;;;;;;14.52;8.70;;;11.90;99.90;;;;;;5032277;28;20674;-77
2021/11/07 06:51:54;;;;;;;12.50;8.50;;;12.10;99.90;;;;;;5034050;28;20286;-77
2021/11/07 06:54:22;;;;;;;12.32;8.57;;;12.00;99.90;;;;;;5032422;28;20202;-77
2021/11/07 06:56:48;;;;;;;10.48;8.32;;;11.90;99.90;;;;;;5034003;28;20623;-77
2021/11/07 06:59:14;;;;;;;9.52;8.05;;;11.90;99.90;;;;;;5033874;28;20686;-77
2021/11/07 07:01:40;;;;;;;10.48;8.55;;;12.00;99.90;;;;;;5033322;28;20179;-78
2021/11/07 07:04:06;;;;;;;9.20;8.02;;;12.00;99.90;;;;;;5033351;28;20250;-79
2021/11/07 07:06:34;;;;;;;16.30;9.77;;;12.10;99.90;;;;;;5032879;28;20267;-77
2021/11/07 07:09:08;;;;;;;14.10;9.77;;;12.10;99.90;;;;;;5033227;28;20171;-78
2021/11/07 07:14:09;;;;;;;18.95;9.07;;;12.10;99.90;;;;;;5033509;28;20211;-77
2021/11/07 07:34:12;;;;;;;18.55;9.15;;;12.20;99.90;;;;;;5032405;28;20626;-77
2021/11/07 07:36:38;;;;;;;14.43;9.10;;;12.20;99.90;;;;;;5032763;28;20755;-77
2021/11/07 07:39:05;;;;;;;15.07;8.23;;;12.20;99.90;;;;;;5032931;28;20203;-79
2021/11/07 07:41:31;;;;;;;10.82;8.27;;;12.30;99.90;;;;;;5033004;28;20163;-77
2021/11/07 07:44:02;;;;;;;11.95;8.55;;;12.40;99.90;;;;;;5033248;28;20164;-79
2021/11/07 07:46:28;;;;;;;11.73;7.32;;;12.30;99.90;;;;;;5033144;28;20164;-79
2021/11/07 07:48:55;;;;;;;9.13;7.47;;;12.40;99.90;;;;;;5033168;28;20186;-77
2021/11/07 07:51:22;;;;;;;7.22;6.43;;;12.50;99.90;;;;;;5032695;28;20667;-78
2021/11/07 07:53:48;;;;;;;11.95;6.80;;;12.60;99.90;;;;;;5032723;28;20656;-78
2021/11/07 07:56:14;;;;;;;10.45;6.43;;;12.70;99.90;;;;;;5032675;28;20179;-78
2021/11/07 07:58:40;;;;;;;12.48;5.53;;;12.70;99.90;;;;;;5032655;28;20172;-78
2021/11/07 08:01:07;;;;;;;8.35;5.75;;;12.70;99.90;;;;;;5032228;28;20294;-78
2021/11/07 08:03:33;;;;;;;8.32;5.15;;;12.80;99.90;;;;;;5032417;28;20175;-79
2021/11/07 08:05:59;;;;;;;8.25;5.38;;;12.70;99.90;;;;;;5032469;28;20168;-78
2021/11/07 08:08:25;;;;;;;5.20;4.07;;;12.70;99.90;;;;;;5032829;28;20688;-78
2021/11/07 08:10:51;;;;;;;15.48;5.18;;;12.60;99.90;;;;;;5032298;28;20191;-78
2021/11/07 08:13:16;;;;;;;18.33;4.43;;;12.70;99.90;;;;;;5031567;28;20200;-77
2021/11/07 08:15:42;;;;;;;3.97;3.63;;;12.70;99.90;;;;;;5032454;28;20203;-79
2021/11/07 08:18:09;;;;;;;8.90;3.80;;;12.50;99.90;;;;;;5030489;28;20213;-78
2021/11/07 08:20:35;;;;;;;7.35;3.35;;;12.50;99.90;;;;;;5032204;28;20183;-77
2021/11/07 08:23:01;;;;;;;11.43;3.90;;;12.50;99.90;;;;;;5032321;28;20248;-78
2021/11/07 08:25:27;;;;;;;9.27;3.33;;;12.60;99.90;;;;;;5033212;28;20254;-78
2021/11/07 08:28:00;;;;;;;9.65;3.13;;;12.60;99.90;;;;;;5031545;28;20229;-79
2021/11/07 08:30:27;;;;;;;12.07;3.30;;;12.60;99.90;;;;;;5031849;28;20618;-78
2021/11/07 08:32:53;;;;;;;16.00;3.25;;;12.60;99.90;;;;;;5031850;28;20269;-78
2021/11/07 08:35:19;;;;;;;5.22;2.45;;;12.50;99.90;;;;;;5032072;28;20168;-78
2021/11/07 08:37:56;;;;;;;11.30;2.47;;;12.60;99.90;;;;;;5031670;28;20171;-78
2021/11/07 08:40:40;;;;;;;5.63;2.42;;;12.50;99.90;;;;;;5031646;28;20705;-78
2021/11/07 08:54:23;;;;;;;11.73;2.45;;;12.60;99.90;;;;;;5031977;28;20672;-77
2021/11/07 09:02:58;;;;;;;8.77;1.73;;;12.80;99.90;;;;;;5031811;28;20183;-79
2021/11/07 09:05:33;;;;;;;4.63;1.55;;;12.80;99.90;;;;;;5032023;28;20175;-79
2021/11/07 09:10:29;;;;;;;15.73;2.22;;;12.60;99.90;;;;;;5032029;28;20282;-84
2021/11/07 09:12:55;;;;;;;8.25;2.08;;;12.70;99.90;;;;;;5032043;28;20585;-78
2021/11/07 09:15:23;;;;;;;10.10;1.75;;;12.70;99.90;;;;;;5032059;28;20161;-80
2021/11/07 09:17:49;;;;;;;9.32;2.30;;;12.70;99.90;;;;;;5031612;28;20267;-79
2021/11/07 09:20:24;;;;;;;15.82;2.25;;;12.60;99.90;;;;;;5029926;28;20249;-77
2021/11/07 09:22:57;;;;;;;14.98;2.33;;;12.70;99.90;;;;;;5031442;28;20160;-77
2021/11/07 09:25:28;;;;;;;7.55;2.45;;;12.60;99.90;;;;;;5034089;28;20279;-77
2021/11/07 09:28:07;;;;;;;8.55;2.78;;;12.60;99.90;;;;;;5035489;28;20164;-76
2021/11/07 09:31:28;;;;;;;16.85;2.40;;;12.60;99.90;;;;;;5035146;28;20183;-78
2021/11/07 09:33:31;;;;;;;33.47;3.78;;;12.70;99.90;;;;;;5026450;28;20219;-77
2021/11/07 09:36:20;;;;;;;16.60;2.70;;;12.60;99.90;;;;;;5021953;28;20194;-81
2021/11/07 09:38:53;;;;;;;24.35;2.67;;;12.50;99.90;;;;;;5032358;28;20659;-84
2021/11/07 09:44:05;;;;;;;9.63;2.53;;;12.40;99.90;;;;;;5034137;28;20186;-83
2021/11/07 09:49:44;;;;;;;19.85;2.30;;;12.40;99.90;;;;;;5033794;28;20175;-83
2021/11/07 09:52:08;;;;;;;13.65;2.08;;;12.40;99.90;;;;;;5030673;28;20172;-83
2021/11/07 09:54:34;;;;;;;20.00;2.65;;;12.40;99.90;;;;;;5034053;28;20187;-78
2021/11/07 09:57:01;;;;;;;11.02;2.60;;;12.50;99.90;;;;;;5029871;28;20171;-78
2021/11/07 09:59:29;;;;;;;17.60;2.20;;;12.40;99.90;;;;;;5029049;28;20542;-81
2021/11/07 10:02:00;;;;;;;24.02;2.58;;;12.40;99.90;;;;;;5028930;28;20179;-77
2021/11/07 10:04:31;;;;;;;8.75;1.88;;;12.40;99.90;;;;;;5033354;28;20270;-77
2021/11/07 10:07:14;;;;;;;15.75;2.80;;;12.50;99.90;;;;;;5033297;28;20172;-76
2021/11/07 10:09:42;;;;;;;11.15;2.13;;;12.50;99.90;;;;;;5030253;28;20846;-77
2021/11/07 10:12:14;;;;;;;6.35;1.77;;;12.60;99.90;;;;;;5032939;28;20190;-77
2021/11/07 10:14:43;;;;;;;7.35;2.30;;;12.50;99.90;;;;;;5033763;28;20179;-76
2021/11/07 10:17:33;;;;;;;7.38;2.17;;;12.40;99.90;;;;;;5033282;28;20160;-76
2021/11/07 10:20:06;;;;;;;11.55;2.00;;;12.50;99.90;;;;;;5032524;28;20882;-85
2021/11/07 10:22:34;;;;;;;20.48;3.55;;;12.60;99.90;;;;;;5032003;28;20175;-77
2021/11/07 10:25:00;;;;;;;19.23;3.28;;;12.60;99.90;;;;;;5032007;28;20591;-77
2021/11/07 10:27:26;;;;;;;15.15;2.55;;;12.80;99.90;;;;;;5032742;28;20160;-77
2021/11/07 10:30:13;;;;;;;11.55;2.35;;;12.90;99.90;;;;;;5033449;28;20554;-78
2021/11/07 10:32:47;;;;;;;15.43;2.47;;;13.00;99.90;;;;;;5033204;28;20257;-79
2021/11/07 10:38:42;;;;;;;15.13;2.50;;;13.00;99.90;;;;;;5032448;28;20188;-77
2021/11/07 10:41:43;;;;;;;12.63;2.03;;;13.00;99.90;;;;;;5033549;28;20204;-77
2021/11/07 10:44:25;;;;;;;15.70;2.97;;;13.10;99.90;;;;;;5032931;28;20222;-76
2021/11/07 10:52:40;;;;;;;9.90;2.60;;;13.20;99.90;;;;;;5033610;28;20309;-78
2021/11/07 10:55:15;;;;;;;16.02;2.15;;;13.30;99.90;;;;;;5031907;28;20602;-76
2021/11/07 10:57:54;;;;;;;7.32;2.22;;;13.10;99.90;;;;;;5033412;28;20163;-77
2021/11/07 11:00:42;;;;;;;10.20;2.00;;;13.10;99.90;;;;;;5030915;28;20199;-77
2021/11/07 11:03:16;;;;;;;13.05;2.75;;;13.20;99.90;;;;;;5023036;28;20214;-78
2021/11/07 11:05:51;;;;;;;9.30;2.47;;;13.30;99.90;;;;;;5028398;28;20234;-78
2021/11/07 11:08:33;;;;;;;14.70;2.45;;;13.40;99.90;;;;;;5033145;28;20518;-80
2021/11/07 11:14:16;;;;;;;8.98;1.92;;;13.30;99.90;;;;;;5031343;28;20211;-77
2021/11/07 11:16:33;;;;;;;14.98;2.55;;;13.30;99.90;;;;;;5025225;28;20612;-77
2021/11/07 11:24:45;;;;;;;15.60;5.38;;;13.30;99.90;;;;;;5032691;28;20176;-77
2021/11/07 11:32:41;;;;;;;7.43;2.60;;;13.20;99.90;;;;;;5032826;28;20219;-77
2021/11/07 11:43:08;;;;;;;26.23;3.55;;;13.00;99.90;;;;;;5032887;28;20198;-79
2021/11/07 11:45:40;;;;;;;19.38;4.53;;;12.90;99.90;;;;;;5032878;28;20160;-78
2021/11/07 11:49:08;;;;;;;16.20;3.10;;;12.90;99.90;;;;;;5032220;28;20175;-78
2021/11/07 11:51:53;;;;;;;12.50;2.15;;;13.00;99.90;;;;;;5032804;28;20294;-80
2021/11/07 12:00:00;;;;;;;12.35;3.15;;;13.10;99.90;;;;;;5032177;28;20227;-80
2021/11/07 12:02:43;;;;;;;10.40;1.95;;;13.30;99.90;;;;;;5033119;28;20254;-78
2021/11/07 12:08:07;;;;;;;15.13;5.93;;;13.60;99.90;;;;;;5008657;28;20528;-77
2021/11/07 12:10:40;;;;;;;13.50;3.42;;;13.50;99.90;;;;;;5032159;28;20286;-77
2021/11/07 12:14:01;;;;;;;20.27;2.78;;;13.40;99.90;;;;;;5032108;28;20204;-77
2021/11/07 12:16:49;;;;;;;11.88;2.53;;;13.30;99.90;;;;;;5031678;28;20183;-78
2021/11/07 12:19:18;;;;;;;11.13;2.05;;;13.40;99.90;;;;;;5032138;28;20187;-77
2021/11/07 12:22:07;;;;;;;16.15;2.85;;;13.20;99.90;;;;;;5032698;28;20217;-78
2021/11/07 12:24:39;;;;;;;8.88;2.33;;;13.10;99.90;;;;;;5030808;28;20215;-79
2021/11/07 12:27:36;;;;;;;16.55;2.55;;;13.10;99.90;;;;;;5030066;28;20168;-80
2021/11/07 12:30:23;;;;;;;16.95;2.33;;;13.10;99.90;;;;;;5031260;28;20188;-82
2021/11/07 12:32:59;;;;;;;13.40;1.63;;;13.30;99.90;;;;;;5030937;28;20207;-77
2021/11/07 12:35:42;;;;;;;18.23;2.50;;;13.30;99.90;;;;;;5031971;28;20221;-77
2021/11/07 12:41:11;;;;;;;16.92;4.75;;;13.10;99.90;;;;;;5031998;28;20671;-83
2021/11/07 12:43:44;;;;;;;12.80;2.58;;;13.20;99.90;;;;;;5031542;28;20182;-78
2021/11/07 12:46:40;;;;;;;19.38;2.60;;;13.00;99.90;;;;;;5032239;28;20172;-77
2021/11/07 12:49:14;;;;;;;18.17;3.28;;;12.90;99.90;;;;;;5031447;28;20613;-77
2021/11/07 12:51:53;;;;;;;14.73;2.88;;;12.90;99.90;;;;;;5031517;28;20262;-78
2021/11/07 12:54:24;;;;;;;15.35;2.42;;;12.90;99.90;;;;;;5031314;28;20654;-79
2021/11/07 12:57:03;;;;;;;15.35;2.38;;;12.80;99.90;;;;;;5031688;28;20166;-77
2021/11/07 12:59:40;;;;;;;10.65;2.95;;;12.80;99.90;;;;;;5033257;28;20214;-77
2021/11/07 13:02:06;;;;;;;18.25;3.20;;;12.70;99.90;;;;;;5035374;28;20186;-77
2021/11/07 13:04:36;;;;;;;18.48;2.92;;;12.70;99.90;;;;;;5035904;28;20171;-77
2021/11/07 13:07:02;;;;;;;9.55;2.33;;;13.00;99.90;;;;;;5035212;28;20172;-78
2021/11/07 13:09:38;;;;;;;4.97;2.13;;;13.10;99.90;;;;;;5035487;28;20175;-78
2021/11/07 13:12:15;;;;;;;14.95;2.78;;;13.00;99.90;;;;;;5035615;28;20183;-81
2021/11/07 13:15:26;;;;;;;8.60;2.20;;;13.00;99.90;;;;;;5035662;28;20202;-77
2021/11/07 13:18:14;;;;;;;12.98;2.05;;;13.10;99.90;;;;;;5032194;28;20175;-75
2021/11/07 13:27:26;;;;;;;18.23;3.17;;;13.00;99.90;;;;;;5023846;28;20241;-75
2021/11/07 13:29:36;;;;;;;21.42;4.22;;;12.90;99.90;;;;;;5031958;28;20553;-76
2021/11/07 13:32:36;;;;;;;19.58;3.20;;;12.90;99.90;;;;;;5035385;28;20269;-76
2021/11/07 13:35:23;;;;;;;19.10;3.25;;;12.80;99.90;;;;;;5035451;28;20184;-75
2021/11/07 13:38:04;;;;;;;18.05;3.13;;;12.70;99.90;;;;;;5035275;28;20168;-76
2021/11/07 13:40:35;;;;;;;29.40;3.40;;;12.60;99.90;;;;;;5035258;28;20196;-76
2021/11/07 13:43:09;;;;;;;10.93;2.25;;;12.40;99.90;;;;;;5035325;28;20511;-76
2021/11/07 13:45:37;;;;;;;13.88;3.03;;;12.30;99.90;;;;;;5035436;28;20171;-76
2021/11/07 13:48:14;;;;;;;12.60;2.28;;;12.40;99.90;;;;;;5034995;28;20168;-75
2021/11/07 13:50:42;;;;;;;18.58;4.95;;;12.50;99.90;;;;;;5035174;28;20211;-76
2021/11/07 13:53:07;;;;;;;19.38;3.38;;;12.50;99.90;;;;;;5034810;28;20284;-76
2021/11/07 13:55:36;;;;;;;8.43;2.47;;;12.50;99.90;;;;;;5035359;28;20168;-75
2021/11/07 13:58:14;;;;;;;14.93;3.63;;;12.50;99.90;;;;;;5034108;28;20530;-75
2021/11/07 14:00:41;;;;;;;10.57;2.63;;;12.60;99.90;;;;;;5034777;28;20184;-75
2021/11/07 14:03:15;;;;;;;11.77;2.17;;;12.60;99.90;;;;;;5034904;28;20219;-75
2021/11/07 14:06:42;;;;;;;20.23;2.45;;;12.60;99.90;;;;;;5035026;28;20164;-75
2021/11/07 14:08:49;;;;;;;19.55;2.47;;;12.70;99.90;;;;;;5029427;28;20200;-76
2021/11/07 14:11:21;;;;;;;17.30;2.58;;;12.80;99.90;;;;;;5033802;28;20238;-75
2021/11/07 14:13:53;;;;;;;11.88;2.80;;;12.90;99.90;;;;;;5034674;28;20249;-75
2021/11/07 14:16:39;;;;;;;8.20;2.55;;;13.00;99.90;;;;;;5034723;28;20620;-76
2021/11/07 14:19:07;;;;;;;27.02;2.90;;;12.90;99.90;;;;;;5034708;28;20598;-75
2021/11/07 14:21:37;;;;;;;16.85;2.85;;;12.70;99.90;;;;;;5034743;28;20168;-75
2021/11/07 14:24:08;;;;;;;13.75;2.30;;;12.70;99.90;;;;;;5034633;28;20168;-75
2021/11/07 14:26:43;;;;;;;10.45;2.47;;;12.60;99.90;;;;;;5034628;28;20179;-75
2021/11/07 14:29:21;;;;;;;17.52;3.75;;;12.60;99.90;;;;;;5034444;28;20254;-75
2021/11/07 14:32:01;;;;;;;12.02;2.20;;;12.60;99.90;;;;;;5034693;28;20536;-76
2021/11/07 14:34:37;;;;;;;14.88;2.15;;;12.50;99.90;;;;;;5034440;28;20549;-75
2021/11/07 14:37:18;;;;;;;14.45;2.40;;;12.50;99.90;;;;;;5034714;28;20167;-75
2021/11/07 14:40:07;;;;;;;17.67;3.05;;;12.40;99.90;;;;;;5034583;28;20585;-75
2021/11/07 14:45:36;;;;;;;20.83;2.80;;;12.70;99.90;;;;;;5049928;28;20188;-77
2021/11/07 14:48:48;;;;;;;10.82;3.70;;;12.60;99.90;;;;;;5034269;28;20160;-77
2021/11/07 14:53:34;;;;;;;4.63;2.13;;;12.60;99.90;;;;;;5034723;28;20215;-77
2021/11/07 15:01:22;;;;;;;16.33;2.78;;;12.50;99.90;;;;;;5033868;28;20203;-75
2021/11/07 15:06:57;;;;;;;7.38;2.45;;;12.50;99.90;;;;;;5033545;28;20246;-75
2021/11/07 15:09:27;;;;;;;15.27;2.58;;;12.60;99.90;;;;;;5033970;28;20192;-75
2021/11/07 15:17:32;;;;;;;15.05;2.47;;;12.60;99.90;;;;;;5033667;28;20579;-78
2021/11/07 15:20:17;;;;;;;20.23;3.50;;;12.70;99.90;;;;;;5033506;28;20210;-77